X  Close Metar Aviation Weather Data     EBBR Brussels
Temperature
6°C Temperature
0°C Dewpoint
66% Humidity



Wind
27 KM/H
17 MPH
8 M/S
15 KTS



270°
West
Current Conditions

Mostly Cloudy Mostly Cloudy
Pressure 1009.92 (hPa) - 29.82 (inHg)
Visibility 6.2 (mile) - 10 (km)
Airport
Airport-code EBBR

Location: Brussels
Distance: 14 (km)

Metar:
EBBR 291320Z 27015G25KT 9999 BKN034 06/00 Q1010 NOSIG

Time: 01-29-2020 14:20 CET